createdAt,value
2023-01-23T00:00:16.815Z,999.76
2023-01-23T00:01:16.670Z,999.73
2023-01-23T00:02:16.716Z,999.76
2023-01-23T00:03:16.652Z,999.76
2023-01-23T00:04:16.702Z,999.78
2023-01-23T00:05:16.637Z,999.77
2023-01-23T00:06:16.637Z,999.76
2023-01-23T00:07:16.733Z,999.73
2023-01-23T00:08:16.595Z,999.84
2023-01-23T00:09:16.610Z,999.82
2023-01-23T00:10:22.573Z,999.85
2023-01-23T00:11:17.679Z,999.85
2023-01-23T00:12:16.596Z,999.88
2023-01-23T00:13:16.533Z,999.80
2023-01-23T00:14:16.532Z,999.83
2023-01-23T00:15:16.534Z,999.80
2023-01-23T00:16:16.520Z,999.85
2023-01-23T00:17:16.495Z,999.84
2023-01-23T00:18:16.508Z,999.79
2023-01-23T00:19:16.479Z,999.76
2023-01-23T00:20:16.491Z,999.71
2023-01-23T00:21:16.466Z,999.73
2023-01-23T00:22:16.441Z,999.72
2023-01-23T00:23:16.430Z,999.73
2023-01-23T00:24:16.429Z,999.69
2023-01-23T00:25:16.413Z,999.68
2023-01-23T00:26:16.435Z,999.73
2023-01-23T00:27:16.501Z,999.74
2023-01-23T00:28:16.374Z,999.71
2023-01-23T00:29:16.370Z,999.72
2023-01-23T00:30:16.447Z,999.72
2023-01-23T00:31:16.506Z,999.77
2023-01-23T00:32:16.358Z,999.79
2023-01-23T00:33:16.370Z,999.69
2023-01-23T00:34:16.346Z,999.69
2023-01-23T00:35:16.318Z,999.69
2023-01-23T00:36:16.314Z,999.76
2023-01-23T00:37:16.282Z,999.74
2023-01-23T00:38:16.277Z,999.72
2023-01-23T00:39:16.300Z,999.73
2023-01-23T00:40:16.302Z,999.74
2023-01-23T00:41:16.238Z,999.67
2023-01-23T00:42:16.229Z,999.66
2023-01-23T00:43:16.331Z,999.70
2023-01-23T00:44:16.230Z,999.66
2023-01-23T00:45:16.205Z,999.65
2023-01-23T00:46:16.240Z,999.63
2023-01-23T00:47:16.198Z,999.65
2023-01-23T00:48:16.174Z,999.61
2023-01-23T00:49:16.181Z,999.69
2023-01-23T00:50:16.156Z,999.61
2023-01-23T00:51:16.205Z,999.61
2023-01-23T00:52:16.126Z,999.60
2023-01-23T00:53:16.166Z,999.64
2023-01-23T00:54:16.109Z,999.59
2023-01-23T00:55:16.113Z,999.63
2023-01-23T00:56:16.101Z,999.65
2023-01-23T00:57:16.075Z,999.69
2023-01-23T00:58:16.078Z,999.69
2023-01-23T00:59:16.164Z,999.69
2023-01-23T01:00:16.208Z,999.68
2023-01-23T01:01:16.103Z,999.65
2023-01-23T01:02:16.028Z,999.64
2023-01-23T01:03:16.010Z,999.66
2023-01-23T01:04:15.992Z,999.66
2023-01-23T01:05:15.983Z,999.66
2023-01-23T01:06:16.024Z,999.62
2023-01-23T01:07:15.973Z,999.68
2023-01-23T01:08:15.968Z,999.69
2023-01-23T01:09:15.980Z,999.66
2023-01-23T01:10:15.943Z,999.69
2023-01-23T01:11:15.958Z,999.75
2023-01-23T01:12:15.912Z,999.71
2023-01-23T01:13:15.919Z,999.67
2023-01-23T01:14:15.897Z,999.73
2023-01-23T01:15:16.002Z,999.70
2023-01-23T01:16:15.920Z,999.74
2023-01-23T01:17:15.865Z,999.70
2023-01-23T01:18:15.857Z,999.70
2023-01-23T01:19:15.880Z,999.72
2023-01-23T01:20:15.884Z,999.73
2023-01-23T01:21:15.836Z,999.75
2023-01-23T01:22:15.818Z,999.80
2023-01-23T01:23:15.805Z,999.80
2023-01-23T01:24:15.809Z,999.78
2023-01-23T01:25:15.785Z,999.83
2023-01-23T01:26:15.839Z,999.83
2023-01-23T01:27:15.759Z,999.84
2023-01-23T01:28:15.742Z,999.79
2023-01-23T01:29:15.743Z,999.81
2023-01-23T01:30:15.735Z,999.78
2023-01-23T01:31:16.002Z,999.81
2023-01-23T01:32:15.711Z,999.81
2023-01-23T01:33:15.697Z,999.80
2023-01-23T01:34:15.684Z,999.77
2023-01-23T01:35:15.663Z,999.78
2023-01-23T01:36:15.721Z,999.74
2023-01-23T01:37:15.673Z,999.79
2023-01-23T01:38:15.635Z,999.68
2023-01-23T01:39:15.652Z,999.77
2023-01-23T01:40:15.643Z,999.80
2023-01-23T01:41:15.620Z,999.67
2023-01-23T01:42:15.612Z,999.76
2023-01-23T01:43:15.633Z,999.77
2023-01-23T01:44:15.575Z,999.76
2023-01-23T01:45:15.570Z,999.79
2023-01-23T01:46:15.640Z,999.79
2023-01-23T01:47:15.657Z,999.79
2023-01-23T01:48:15.571Z,999.77
2023-01-23T01:49:15.531Z,999.75
2023-01-23T01:50:15.512Z,999.77
2023-01-23T01:51:15.515Z,999.78
2023-01-23T01:52:15.488Z,999.78
2023-01-23T01:53:15.504Z,999.75
2023-01-23T01:54:15.492Z,999.78
2023-01-23T01:55:15.478Z,999.82
2023-01-23T01:56:15.497Z,999.77
2023-01-23T01:57:15.444Z,999.76
2023-01-23T01:58:15.468Z,999.77
2023-01-23T01:59:15.427Z,999.82
2023-01-23T02:00:15.426Z,999.83
2023-01-23T02:01:15.411Z,999.80
2023-01-23T02:02:15.457Z,999.88
2023-01-23T02:03:15.504Z,999.83
2023-01-23T02:04:15.378Z,999.86
2023-01-23T02:05:15.353Z,999.83
2023-01-23T02:06:15.391Z,999.82
2023-01-23T02:07:15.341Z,999.89
2023-01-23T02:08:15.326Z,999.89
2023-01-23T02:09:15.309Z,999.93
2023-01-23T02:10:15.298Z,999.89
2023-01-23T02:11:15.302Z,999.90
2023-01-23T02:12:15.287Z,999.85
2023-01-23T02:13:15.283Z,999.88
2023-01-23T02:14:15.295Z,999.83
2023-01-23T02:15:15.264Z,999.84
2023-01-23T02:16:15.320Z,999.82
2023-01-23T02:17:15.250Z,999.84
2023-01-23T02:18:15.229Z,999.90
2023-01-23T02:19:15.319Z,999.87
2023-01-23T02:20:15.204Z,999.90
2023-01-23T02:21:15.218Z,999.85
2023-01-23T02:22:15.202Z,999.85
2023-01-23T02:23:15.189Z,999.92
2023-01-23T02:24:15.160Z,999.91
2023-01-23T02:25:15.142Z,999.98
2023-01-23T02:26:15.167Z,999.96
2023-01-23T02:27:15.123Z,999.96
2023-01-23T02:28:15.123Z,1000.04
2023-01-23T02:29:15.117Z,1000.01
2023-01-23T02:30:15.090Z,1000.03
2023-01-23T02:31:15.199Z,999.96
2023-01-23T02:32:15.073Z,999.94
2023-01-23T02:33:15.055Z,1000.02
2023-01-23T02:34:15.045Z,999.91
2023-01-23T02:35:15.150Z,999.92
2023-01-23T02:36:15.134Z,999.88
2023-01-23T02:37:15.024Z,999.90
2023-01-23T02:38:15.030Z,999.83
2023-01-23T02:39:15.067Z,999.85
2023-01-23T02:40:15.009Z,999.81
2023-01-23T02:41:15.097Z,999.86
2023-01-23T02:42:14.974Z,999.86
2023-01-23T02:43:14.958Z,999.84
2023-01-23T02:44:14.953Z,999.85
2023-01-23T02:45:14.945Z,999.86
2023-01-23T02:46:14.959Z,999.86
2023-01-23T02:47:14.929Z,999.83
2023-01-23T02:48:14.904Z,999.88
2023-01-23T02:49:14.886Z,999.83
2023-01-23T02:50:14.883Z,999.91
2023-01-23T02:51:15.052Z,999.85
2023-01-23T02:52:14.892Z,999.87
2023-01-23T02:53:14.849Z,999.90
2023-01-23T02:54:14.840Z,999.88
2023-01-23T02:55:14.828Z,999.95
2023-01-23T02:56:14.833Z,999.86
2023-01-23T02:57:14.821Z,999.93
2023-01-23T02:58:14.806Z,999.87
2023-01-23T02:59:14.825Z,999.90
2023-01-23T03:00:14.774Z,999.93
2023-01-23T03:01:14.807Z,999.86
2023-01-23T03:02:14.799Z,999.89
2023-01-23T03:03:14.750Z,999.95
2023-01-23T03:04:14.731Z,999.89
2023-01-23T03:05:14.733Z,999.86
2023-01-23T03:06:14.766Z,999.86
2023-01-23T03:07:14.725Z,999.86
2023-01-23T03:08:14.690Z,999.86
2023-01-23T03:09:14.696Z,999.87
2023-01-23T03:10:14.679Z,999.82
2023-01-23T03:11:14.683Z,999.88
2023-01-23T03:12:14.710Z,999.85
2023-01-23T03:13:14.683Z,999.92
2023-01-23T03:14:14.629Z,999.79
2023-01-23T03:15:14.618Z,999.77
2023-01-23T03:16:14.669Z,999.80
2023-01-23T03:17:14.597Z,999.74
2023-01-23T03:18:14.603Z,999.76
2023-01-23T03:19:14.614Z,999.72
2023-01-23T03:20:14.564Z,999.77
2023-01-23T03:21:14.558Z,999.75
2023-01-23T03:22:14.547Z,999.73
2023-01-23T03:23:14.672Z,999.66
2023-01-23T03:24:14.522Z,999.70
2023-01-23T03:25:14.526Z,999.66
2023-01-23T03:26:14.533Z,999.64
2023-01-23T03:27:14.492Z,999.68
2023-01-23T03:28:14.495Z,999.74
2023-01-23T03:29:14.499Z,999.73
2023-01-23T03:30:14.456Z,999.72
2023-01-23T03:31:14.489Z,999.73
2023-01-23T03:32:14.437Z,999.76
2023-01-23T03:33:14.476Z,999.77
2023-01-23T03:34:14.416Z,999.78
2023-01-23T03:35:14.417Z,999.77
2023-01-23T03:36:14.411Z,999.68
2023-01-23T03:37:14.393Z,999.67
2023-01-23T03:38:14.383Z,999.58
2023-01-23T03:39:14.390Z,999.61
2023-01-23T03:40:14.365Z,999.63
2023-01-23T03:41:14.355Z,999.53
2023-01-23T03:42:14.334Z,999.53
2023-01-23T03:43:14.322Z,999.53
2023-01-23T03:44:14.307Z,999.52
2023-01-23T03:45:14.312Z,999.51
2023-01-23T03:46:14.362Z,999.49
2023-01-23T03:47:14.278Z,999.54
2023-01-23T03:48:14.267Z,999.54
2023-01-23T03:49:14.257Z,999.53
2023-01-23T03:50:14.265Z,999.56
2023-01-23T03:51:14.304Z,999.53
2023-01-23T03:52:14.241Z,999.56
2023-01-23T03:53:14.263Z,999.55
2023-01-23T03:54:14.201Z,999.51
2023-01-23T03:55:14.328Z,999.68
2023-01-23T03:56:14.201Z,999.57
2023-01-23T03:57:14.178Z,999.64
2023-01-23T03:58:14.167Z,999.67
2023-01-23T03:59:14.186Z,999.67
2023-01-23T04:00:14.179Z,999.63
2023-01-23T04:01:14.176Z,999.67
2023-01-23T04:02:14.115Z,999.62
2023-01-23T04:03:14.109Z,999.65
2023-01-23T04:04:14.106Z,999.68
2023-01-23T04:05:14.163Z,999.64
2023-01-23T04:06:14.193Z,999.66
2023-01-23T04:07:14.086Z,999.70
2023-01-23T04:08:14.058Z,999.68
2023-01-23T04:09:14.052Z,999.64
2023-01-23T04:10:14.056Z,999.65
2023-01-23T04:11:14.135Z,999.63
2023-01-23T04:12:14.041Z,999.68
2023-01-23T04:13:14.007Z,999.68
2023-01-23T04:14:13.989Z,999.72
2023-01-23T04:15:13.986Z,999.67
2023-01-23T04:16:14.061Z,999.72
2023-01-23T04:17:13.966Z,999.75
2023-01-23T04:18:13.967Z,999.77
2023-01-23T04:19:13.947Z,999.77
2023-01-23T04:20:13.923Z,999.79
2023-01-23T04:21:13.982Z,999.74
2023-01-23T04:22:13.925Z,999.72
2023-01-23T04:23:13.906Z,999.73
2023-01-23T04:24:13.899Z,999.71
2023-01-23T04:25:13.871Z,999.76
2023-01-23T04:26:13.886Z,999.77
2023-01-23T04:27:13.968Z,999.76
2023-01-23T04:28:13.838Z,999.71
2023-01-23T04:29:13.827Z,999.74
2023-01-23T04:30:13.833Z,999.71
2023-01-23T04:31:13.953Z,999.77
2023-01-23T04:32:13.832Z,999.77
2023-01-23T04:33:13.813Z,999.79
2023-01-23T04:34:13.774Z,999.77
2023-01-23T04:35:13.767Z,999.79
2023-01-23T04:36:13.795Z,999.78
2023-01-23T04:37:13.803Z,999.77
2023-01-23T04:38:13.740Z,999.80
2023-01-23T04:39:13.720Z,999.76
2023-01-23T04:40:13.708Z,999.77
2023-01-23T04:41:13.732Z,999.78
2023-01-23T04:42:13.734Z,999.82
2023-01-23T04:43:13.806Z,999.80
2023-01-23T04:44:13.682Z,999.82
2023-01-23T04:45:13.668Z,999.84
2023-01-23T04:46:13.676Z,999.85
2023-01-23T04:47:13.661Z,999.85
2023-01-23T04:48:13.646Z,999.85
2023-01-23T04:49:13.698Z,999.84
2023-01-23T04:50:13.631Z,999.86
2023-01-23T04:51:13.692Z,999.83
2023-01-23T04:52:13.588Z,999.84
2023-01-23T04:53:13.592Z,999.83
2023-01-23T04:54:13.571Z,999.78
2023-01-23T04:55:13.571Z,999.79
2023-01-23T04:56:13.603Z,999.81
2023-01-23T04:57:13.534Z,999.76
2023-01-23T04:58:13.520Z,999.77
2023-01-23T04:59:13.617Z,999.73
2023-01-23T05:00:13.497Z,999.77
2023-01-23T05:01:13.517Z,999.76
2023-01-23T05:02:13.518Z,999.74
2023-01-23T05:03:13.477Z,999.70
2023-01-23T05:04:13.471Z,999.71
2023-01-23T05:05:13.470Z,999.67
2023-01-23T05:06:13.467Z,999.69
2023-01-23T05:07:13.470Z,999.70
2023-01-23T05:08:13.430Z,999.66
2023-01-23T05:09:13.406Z,999.72
2023-01-23T05:10:13.396Z,999.66
2023-01-23T05:11:13.397Z,999.71
2023-01-23T05:12:13.371Z,999.64
2023-01-23T05:13:13.374Z,999.66
2023-01-23T05:14:13.343Z,999.57
2023-01-23T05:15:13.357Z,999.61
2023-01-23T05:16:13.450Z,999.64
2023-01-23T05:17:13.370Z,999.65
2023-01-23T05:18:13.312Z,999.63
2023-01-23T05:19:13.305Z,999.62
2023-01-23T05:20:13.299Z,999.73
2023-01-23T05:21:13.296Z,999.63
2023-01-23T05:22:13.277Z,999.69
2023-01-23T05:23:13.264Z,999.63
2023-01-23T05:24:13.277Z,999.69
2023-01-23T05:25:13.258Z,999.66
2023-01-23T05:26:13.249Z,999.68
2023-01-23T05:27:13.214Z,999.69
2023-01-23T05:28:13.203Z,999.71
2023-01-23T05:29:13.190Z,999.73
2023-01-23T05:30:13.217Z,999.61
2023-01-23T05:31:13.589Z,999.63
2023-01-23T05:32:13.169Z,999.60
2023-01-23T05:33:13.161Z,999.64
2023-01-23T05:34:13.135Z,999.67
2023-01-23T05:35:13.124Z,999.67
2023-01-23T05:36:13.158Z,999.65
2023-01-23T05:37:13.110Z,999.65
2023-01-23T05:38:13.099Z,999.75
2023-01-23T05:39:13.125Z,999.67
2023-01-23T05:40:13.088Z,999.66
2023-01-23T05:41:13.105Z,999.65
2023-01-23T05:42:13.092Z,999.68
2023-01-23T05:43:13.038Z,999.72
2023-01-23T05:44:13.044Z,999.71
2023-01-23T05:45:13.092Z,999.71
2023-01-23T05:46:13.090Z,999.72
2023-01-23T05:47:13.108Z,999.70
2023-01-23T05:48:13.062Z,999.75
2023-01-23T05:49:13.012Z,999.71
2023-01-23T05:50:12.975Z,999.68
2023-01-23T05:51:13.115Z,999.70
2023-01-23T05:52:12.971Z,999.73
2023-01-23T05:53:12.953Z,999.75
2023-01-23T05:54:12.947Z,999.65
2023-01-23T05:55:12.918Z,999.73
2023-01-23T05:56:12.914Z,999.74
2023-01-23T05:57:12.899Z,999.68
2023-01-23T05:58:15.084Z,999.64
2023-01-23T05:59:12.899Z,999.66
2023-01-23T06:00:12.866Z,999.68
2023-01-23T06:01:12.923Z,999.71
2023-01-23T06:02:12.858Z,999.65
2023-01-23T06:03:12.944Z,999.69
2023-01-23T06:04:12.813Z,999.66
2023-01-23T06:05:12.847Z,999.57
2023-01-23T06:06:12.896Z,999.67
2023-01-23T06:07:12.791Z,999.62
2023-01-23T06:08:12.779Z,999.67
2023-01-23T06:09:12.778Z,999.68
2023-01-23T06:10:12.760Z,999.71
2023-01-23T06:11:12.770Z,999.69
2023-01-23T06:12:12.741Z,999.71
2023-01-23T06:13:12.763Z,999.73
2023-01-23T06:14:12.731Z,999.71
2023-01-23T06:15:12.699Z,999.70
2023-01-23T06:16:12.827Z,999.78
2023-01-23T06:17:12.682Z,999.81
2023-01-23T06:18:12.770Z,999.79
2023-01-23T06:19:12.779Z,999.83
2023-01-23T06:20:12.654Z,999.85
2023-01-23T06:21:12.641Z,999.87
2023-01-23T06:22:12.664Z,999.83
2023-01-23T06:23:12.630Z,999.92
2023-01-23T06:24:12.605Z,999.90
2023-01-23T06:25:12.603Z,999.91
2023-01-23T06:26:12.577Z,999.92
2023-01-23T06:27:12.598Z,999.93
2023-01-23T06:28:12.573Z,999.88
2023-01-23T06:29:12.571Z,999.92
2023-01-23T06:30:12.563Z,1000.02
2023-01-23T06:31:12.685Z,1000.00
2023-01-23T06:32:12.551Z,999.98
2023-01-23T06:33:12.529Z,1000.01
2023-01-23T06:34:12.520Z,999.98
2023-01-23T06:35:12.598Z,1000.05
2023-01-23T06:36:12.499Z,1000.04
2023-01-23T06:37:12.532Z,1000.09
2023-01-23T06:38:12.486Z,1000.08
2023-01-23T06:39:12.445Z,1000.10
2023-01-23T06:40:12.433Z,1000.14
2023-01-23T06:41:12.458Z,1000.19
2023-01-23T06:42:12.445Z,1000.21
2023-01-23T06:43:12.415Z,1000.19
2023-01-23T06:44:12.385Z,1000.17
2023-01-23T06:45:12.388Z,1000.15
2023-01-23T06:46:12.440Z,1000.16
2023-01-23T06:47:12.395Z,1000.16
2023-01-23T06:48:12.369Z,1000.20
2023-01-23T06:49:12.361Z,1000.23
2023-01-23T06:50:12.375Z,1000.23
2023-01-23T06:51:12.541Z,1000.22
2023-01-23T06:52:12.301Z,1000.25
2023-01-23T06:53:12.315Z,1000.26
2023-01-23T06:54:12.318Z,1000.23
2023-01-23T06:55:14.471Z,1000.23
2023-01-23T06:56:12.289Z,1000.25
2023-01-23T06:57:12.291Z,1000.27
2023-01-23T06:58:12.291Z,1000.32
2023-01-23T06:59:12.317Z,1000.32
2023-01-23T07:00:12.238Z,1000.30
2023-01-23T07:01:12.265Z,1000.36
2023-01-23T07:02:12.231Z,1000.35
2023-01-23T07:03:12.296Z,1000.41
2023-01-23T07:04:12.196Z,1000.40
2023-01-23T07:05:12.166Z,1000.44
2023-01-23T07:06:12.155Z,1000.43
2023-01-23T07:07:12.264Z,1000.48
2023-01-23T07:08:12.183Z,1000.48
2023-01-23T07:09:12.154Z,1000.44
2023-01-23T07:10:12.138Z,1000.46
2023-01-23T07:11:12.189Z,1000.44
2023-01-23T07:12:12.095Z,1000.45
2023-01-23T07:13:12.126Z,1000.43
2023-01-23T07:14:12.098Z,1000.43
2023-01-23T07:15:12.070Z,1000.48
2023-01-23T07:16:12.092Z,1000.47
2023-01-23T07:17:12.042Z,1000.49
2023-01-23T07:18:12.069Z,1000.47
2023-01-23T07:19:12.023Z,1000.42
2023-01-23T07:20:12.118Z,1000.44
2023-01-23T07:21:12.021Z,1000.44
2023-01-23T07:22:11.992Z,1000.44
2023-01-23T07:23:12.121Z,1000.45
2023-01-23T07:24:11.970Z,1000.50
2023-01-23T07:25:11.955Z,1000.41
2023-01-23T07:26:11.976Z,1000.41
2023-01-23T07:27:11.983Z,1000.44
2023-01-23T07:28:11.963Z,1000.44
2023-01-23T07:29:11.919Z,1000.53
2023-01-23T07:30:11.898Z,1000.45
2023-01-23T07:31:12.030Z,1000.46
2023-01-23T07:32:11.909Z,1000.46
2023-01-23T07:33:11.885Z,1000.52
2023-01-23T07:34:11.889Z,1000.50
2023-01-23T07:35:11.879Z,1000.47
2023-01-23T07:36:11.839Z,1000.54
2023-01-23T07:37:11.849Z,1000.51
2023-01-23T07:38:11.824Z,1000.46
2023-01-23T07:39:11.919Z,1000.50
2023-01-23T07:40:11.824Z,1000.50
2023-01-23T07:41:11.795Z,1000.45
2023-01-23T07:42:11.799Z,1000.44
2023-01-23T07:43:11.774Z,1000.45
2023-01-23T07:44:11.779Z,1000.49
2023-01-23T07:45:11.742Z,1000.51
2023-01-23T07:46:11.789Z,1000.46
2023-01-23T07:47:11.782Z,1000.46
2023-01-23T07:48:11.740Z,1000.51
2023-01-23T07:49:11.760Z,1000.44
2023-01-23T07:50:11.750Z,1000.49
2023-01-23T07:51:11.741Z,1000.44
2023-01-23T07:52:11.698Z,1000.43
2023-01-23T07:53:11.664Z,1000.47
2023-01-23T07:54:11.676Z,1000.50
2023-01-23T07:55:11.752Z,1000.51
2023-01-23T07:56:11.699Z,1000.48
2023-01-23T07:57:11.617Z,1000.48
2023-01-23T07:58:11.633Z,1000.44
2023-01-23T07:59:11.650Z,1000.47
2023-01-23T08:00:11.632Z,1000.45
2023-01-23T08:01:11.648Z,1000.52
2023-01-23T08:02:11.612Z,1000.44
2023-01-23T08:03:11.549Z,1000.53
2023-01-23T08:04:11.687Z,1000.45
2023-01-23T08:05:11.548Z,1000.40
2023-01-23T08:06:11.537Z,1000.43
2023-01-23T08:07:11.522Z,1000.43
2023-01-23T08:08:13.768Z,1000.39
2023-01-23T08:09:11.514Z,1000.45
2023-01-23T08:10:11.486Z,1000.39
2023-01-23T08:11:11.585Z,1000.42
2023-01-23T08:12:11.517Z,1000.37
2023-01-23T08:13:11.454Z,1000.39
2023-01-23T08:14:11.483Z,1000.40
2023-01-23T08:15:11.445Z,1000.36
2023-01-23T08:16:13.588Z,1000.37
2023-01-23T08:17:11.435Z,1000.37
2023-01-23T08:18:11.411Z,1000.32
2023-01-23T08:19:11.410Z,1000.36
2023-01-23T08:20:11.398Z,1000.39
2023-01-23T08:21:11.371Z,1000.48
2023-01-23T08:22:11.390Z,1000.38
2023-01-23T08:23:11.375Z,1000.51
2023-01-23T08:24:11.378Z,1000.52
2023-01-23T08:25:11.326Z,1000.47
2023-01-23T08:26:11.346Z,1000.55
2023-01-23T08:27:14.250Z,1000.47
2023-01-23T08:28:11.329Z,1000.54
2023-01-23T08:29:11.308Z,1000.52
2023-01-23T08:30:11.303Z,1000.58
2023-01-23T08:31:11.428Z,1000.59
2023-01-23T08:32:11.252Z,1000.56
2023-01-23T08:33:11.317Z,1000.60
2023-01-23T08:34:11.220Z,1000.60
2023-01-23T08:35:11.226Z,1000.59
2023-01-23T08:36:11.420Z,1000.59
2023-01-23T08:37:11.210Z,1000.54
2023-01-23T08:38:11.237Z,1000.53
2023-01-23T08:39:11.188Z,1000.55
2023-01-23T08:40:11.163Z,1000.55
2023-01-23T08:41:11.156Z,1000.56
2023-01-23T08:42:11.158Z,1000.48
2023-01-23T08:43:11.177Z,1000.50
2023-01-23T08:44:11.124Z,1000.49
2023-01-23T08:45:11.139Z,1000.47
2023-01-23T08:46:11.196Z,1000.46
2023-01-23T08:47:11.160Z,1000.45
2023-01-23T08:48:11.088Z,1000.43
2023-01-23T08:49:11.471Z,1000.42
2023-01-23T08:50:11.181Z,1000.43
2023-01-23T08:51:11.126Z,1000.45
2023-01-23T08:52:11.101Z,1000.53
2023-01-23T08:53:11.031Z,1000.45
2023-01-23T08:54:11.027Z,1000.46
2023-01-23T08:55:11.029Z,1000.43
2023-01-23T08:56:11.050Z,1000.44
2023-01-23T08:57:11.068Z,1000.47
2023-01-23T08:58:10.983Z,1000.43
2023-01-23T08:59:11.082Z,1000.46
2023-01-23T09:00:11.012Z,1000.48
2023-01-23T09:01:10.971Z,1000.41
2023-01-23T09:02:11.034Z,1000.48
2023-01-23T09:03:11.495Z,1000.36
2023-01-23T09:04:10.911Z,1000.40
2023-01-23T09:05:10.901Z,1000.41
2023-01-23T09:06:10.899Z,1000.35
2023-01-23T09:07:10.973Z,1000.41
2023-01-23T09:08:10.935Z,1000.33
2023-01-23T09:09:10.873Z,1000.42
2023-01-23T09:10:10.857Z,1000.33
2023-01-23T09:11:10.856Z,1000.27
2023-01-23T09:12:10.853Z,1000.21
2023-01-23T09:13:10.889Z,1000.23
2023-01-23T09:14:10.825Z,1000.28
2023-01-23T09:15:10.967Z,1000.28
2023-01-23T09:16:10.890Z,1000.21
2023-01-23T09:17:10.806Z,1000.24
2023-01-23T09:18:10.757Z,1000.36
2023-01-23T09:19:10.753Z,1000.24
2023-01-23T09:20:10.737Z,1000.22
2023-01-23T09:21:10.722Z,1000.28
2023-01-23T09:22:10.801Z,1000.19
2023-01-23T09:23:10.709Z,1000.24
2023-01-23T09:24:10.697Z,1000.29
2023-01-23T09:25:10.704Z,1000.25
2023-01-23T09:26:10.735Z,1000.28
2023-01-23T09:27:10.682Z,1000.21
2023-01-23T09:28:10.712Z,1000.27
2023-01-23T09:29:10.667Z,1000.22
2023-01-23T09:30:10.644Z,1000.24
2023-01-23T09:31:10.755Z,1000.23
2023-01-23T09:32:10.675Z,1000.17
2023-01-23T09:33:10.621Z,1000.19
2023-01-23T09:34:10.609Z,1000.18
2023-01-23T09:35:10.583Z,1000.19
2023-01-23T09:36:10.568Z,1000.16
2023-01-23T09:37:10.598Z,1000.16
2023-01-23T09:38:10.569Z,1000.09
2023-01-23T09:39:10.540Z,1000.11
2023-01-23T09:40:10.559Z,1000.15
2023-01-23T09:41:10.533Z,1000.10
2023-01-23T09:42:10.555Z,1000.13
2023-01-23T09:43:10.492Z,1000.15
2023-01-23T09:44:10.534Z,1000.10
2023-01-23T09:45:10.505Z,1000.10
2023-01-23T09:46:10.518Z,1000.21
2023-01-23T09:47:10.576Z,1000.23
2023-01-23T09:48:10.537Z,1000.19
2023-01-23T09:49:10.462Z,1000.19
2023-01-23T09:50:10.459Z,1000.23
2023-01-23T09:51:10.443Z,1000.23
2023-01-23T09:52:10.433Z,1000.31
2023-01-23T09:53:10.401Z,1000.37
2023-01-23T09:54:10.398Z,1000.37
2023-01-23T09:55:10.380Z,1000.40
2023-01-23T09:56:10.352Z,1000.35
2023-01-23T09:57:10.447Z,1000.32
2023-01-23T09:58:10.362Z,1000.35
2023-01-23T09:59:10.316Z,1000.39
2023-01-23T10:00:10.321Z,1000.40
2023-01-23T10:01:10.350Z,1000.39
2023-01-23T10:02:10.362Z,1000.32
2023-01-23T10:03:10.400Z,1000.34
2023-01-23T10:04:10.284Z,1000.29
2023-01-23T10:05:10.262Z,1000.34
2023-01-23T10:06:10.262Z,1000.38
2023-01-23T10:07:10.311Z,1000.34
2023-01-23T10:08:10.255Z,1000.37
2023-01-23T10:09:10.233Z,1000.34
2023-01-23T10:10:10.230Z,1000.36
2023-01-23T10:11:10.212Z,1000.40
2023-01-23T10:12:10.222Z,1000.35
2023-01-23T10:13:10.177Z,1000.35
2023-01-23T10:14:10.205Z,1000.29
2023-01-23T10:15:10.154Z,1000.32
2023-01-23T10:16:10.174Z,1000.36
2023-01-23T10:17:10.178Z,1000.32
2023-01-23T10:18:10.117Z,1000.30
2023-01-23T10:19:10.246Z,1000.31
2023-01-23T10:20:10.111Z,1000.26
2023-01-23T10:21:10.085Z,1000.32
2023-01-23T10:22:14.973Z,1000.27
2023-01-23T10:23:11.098Z,1000.18
2023-01-23T10:24:10.110Z,1000.24
2023-01-23T10:25:10.071Z,1000.22
2023-01-23T10:26:10.038Z,1000.17
2023-01-23T10:27:10.083Z,1000.12
2023-01-23T10:28:10.911Z,1000.10
2023-01-23T10:29:10.007Z,1000.00
2023-01-23T10:30:10.000Z,999.93
2023-01-23T10:31:10.070Z,999.90
2023-01-23T10:32:10.006Z,999.91
2023-01-23T10:33:09.987Z,999.85
2023-01-23T10:34:09.982Z,999.96
2023-01-23T10:35:10.059Z,999.86
2023-01-23T10:36:09.986Z,999.83
2023-01-23T10:37:09.971Z,999.77
2023-01-23T10:38:09.956Z,999.80
2023-01-23T10:39:09.957Z,999.88
2023-01-23T10:40:09.910Z,999.94
2023-01-23T10:41:09.876Z,999.96
2023-01-23T10:42:09.933Z,999.93
2023-01-23T10:43:09.879Z,999.89
2023-01-23T10:44:09.841Z,999.88
2023-01-23T10:45:09.853Z,1000.00
2023-01-23T10:46:09.882Z,1000.07
2023-01-23T10:47:09.844Z,1000.03
2023-01-23T10:48:16.128Z,1000.01
2023-01-23T10:49:10.787Z,999.98
2023-01-23T10:50:09.783Z,999.97
2023-01-23T10:51:09.931Z,999.99
2023-01-23T10:52:09.805Z,999.93
2023-01-23T10:53:09.747Z,999.96
2023-01-23T10:54:11.477Z,999.90
2023-01-23T10:55:09.739Z,999.94
2023-01-23T10:56:09.785Z,999.84
2023-01-23T10:57:09.747Z,999.79
2023-01-23T10:58:09.728Z,999.86
2023-01-23T10:59:09.685Z,999.94
2023-01-23T11:00:09.710Z,999.92
2023-01-23T11:01:09.704Z,999.77
2023-01-23T11:02:09.843Z,999.81
2023-01-23T11:03:09.684Z,999.84
2023-01-23T11:04:09.652Z,999.80
2023-01-23T11:05:09.626Z,999.79
2023-01-23T11:06:09.647Z,999.79
2023-01-23T11:07:09.754Z,999.72
2023-01-23T11:08:09.624Z,999.66
2023-01-23T11:09:09.588Z,999.70
2023-01-23T11:10:09.580Z,999.74
2023-01-23T11:11:09.584Z,999.79
2023-01-23T11:12:09.564Z,999.85
2023-01-23T11:13:09.595Z,999.72
2023-01-23T11:14:09.511Z,999.71
2023-01-23T11:15:09.527Z,999.77
2023-01-23T11:16:09.623Z,999.68
2023-01-23T11:17:09.556Z,999.65
2023-01-23T11:18:09.495Z,999.71
2023-01-23T11:19:09.478Z,999.76
2023-01-23T11:20:09.459Z,999.74
2023-01-23T11:21:09.475Z,999.76
2023-01-23T11:22:09.531Z,999.73
2023-01-23T11:23:09.542Z,999.70
2023-01-23T11:24:09.425Z,999.72
2023-01-23T11:25:09.415Z,999.68
2023-01-23T11:26:09.394Z,999.62
2023-01-23T11:27:09.407Z,999.56
2023-01-23T11:28:09.383Z,999.69
2023-01-23T11:29:10.107Z,999.43
2023-01-23T11:30:09.372Z,999.49
2023-01-23T11:31:14.490Z,999.53
2023-01-23T11:32:10.471Z,999.47
2023-01-23T11:33:09.340Z,999.47
2023-01-23T11:34:09.324Z,999.37
2023-01-23T11:35:09.307Z,999.36
2023-01-23T11:36:09.297Z,999.43
2023-01-23T11:37:09.301Z,999.40
2023-01-23T11:38:09.277Z,999.50
2023-01-23T11:39:09.352Z,999.39
2023-01-23T11:40:09.244Z,999.38
2023-01-23T11:41:09.244Z,999.41
2023-01-23T11:42:09.235Z,999.42
2023-01-23T11:43:09.210Z,999.42
2023-01-23T11:44:11.282Z,999.39
2023-01-23T11:45:09.191Z,999.39
2023-01-23T11:46:09.253Z,999.41
2023-01-23T11:47:09.224Z,999.36
2023-01-23T11:48:09.194Z,999.38
2023-01-23T11:49:09.141Z,999.36
2023-01-23T11:50:09.123Z,999.35
2023-01-23T11:51:09.165Z,999.35
2023-01-23T11:52:09.153Z,999.34
2023-01-23T11:53:09.102Z,999.33
2023-01-23T11:54:09.151Z,999.32
2023-01-23T11:55:09.091Z,999.33
2023-01-23T11:56:09.116Z,999.29
2023-01-23T11:57:09.114Z,999.25
2023-01-23T11:58:09.042Z,999.27
2023-01-23T11:59:09.059Z,999.29
2023-01-23T12:00:09.026Z,999.17
2023-01-23T12:01:09.004Z,999.28
2023-01-23T12:02:09.000Z,999.15
2023-01-23T12:03:09.141Z,999.18
2023-01-23T12:04:09.071Z,999.15
2023-01-23T12:05:08.982Z,999.20
2023-01-23T12:06:19.720Z,999.16
2023-01-23T12:07:09.965Z,999.16
2023-01-23T12:08:08.987Z,999.15
2023-01-23T12:09:08.946Z,999.15
2023-01-23T12:10:08.966Z,999.16
2023-01-23T12:11:09.009Z,999.19
2023-01-23T12:12:08.902Z,999.15
2023-01-23T12:13:08.938Z,999.15
2023-01-23T12:14:08.885Z,999.13
2023-01-23T12:15:08.904Z,999.14
2023-01-23T12:16:08.902Z,999.19
2023-01-23T12:17:08.946Z,999.14
2023-01-23T12:18:08.924Z,999.12
2023-01-23T12:19:08.876Z,999.15
2023-01-23T12:20:08.843Z,999.18